Time;durP1;ratioP1;P1;durP2;ratioP2;P2;SDS_P1;SDS_P2;PMS_P1;PMS_P2;Temp;Humidity;BMP_temperature;BMP_pressure;BME280_temperature;BME280_humidity;BME280_pressure;Samples;Min_cycle;Max_cycle;Signal;HPM_P1;HPM_P2
2023/07/29 00:01:12;;;;;;;2.60;2.40;;;22.10;99.90;;;;;;5118358;28;20131;-87
2023/07/29 00:03:38;;;;;;;5.15;3.90;;;22.10;99.90;;;;;;5099652;28;20131;-88
2023/07/29 00:06:03;;;;;;;2.65;2.15;;;22.10;99.90;;;;;;5118633;28;20456;-88
2023/07/29 00:08:29;;;;;;;2.97;2.50;;;22.00;99.90;;;;;;5118313;28;20038;-86
2023/07/29 00:10:55;;;;;;;2.53;2.33;;;22.10;99.90;;;;;;5100042;28;20081;-86
2023/07/29 00:13:20;;;;;;;2.72;2.10;;;22.00;99.90;;;;;;5100501;28;20035;-87
2023/07/29 00:15:46;;;;;;;2.90;2.60;;;22.00;99.90;;;;;;5118815;28;20111;-87
2023/07/29 00:18:11;;;;;;;3.40;2.80;;;22.00;99.90;;;;;;5118969;28;20076;-86
2023/07/29 00:20:37;;;;;;;2.47;2.28;;;22.00;99.90;;;;;;5116948;28;20039;-84
2023/07/29 00:23:03;;;;;;;2.58;1.90;;;22.00;99.90;;;;;;5098959;28;20031;-85
2023/07/29 00:25:28;;;;;;;1.60;1.40;;;22.00;99.90;;;;;;5082681;28;20097;-86
2023/07/29 00:27:58;;;;;;;2.17;1.73;;;22.00;99.90;;;;;;5117108;28;20035;-85
2023/07/29 00:30:24;;;;;;;2.33;1.70;;;22.00;99.90;;;;;;5099003;28;20035;-85
2023/07/29 00:32:49;;;;;;;1.92;1.67;;;22.00;99.90;;;;;;5117186;28;20134;-86
2023/07/29 00:35:15;;;;;;;1.70;1.35;;;21.90;99.90;;;;;;5082476;28;20369;-86
2023/07/29 00:37:41;;;;;;;1.80;1.52;;;22.00;99.90;;;;;;5100683;28;20107;-84
2023/07/29 00:40:20;;;;;;;1.83;1.40;;;22.00;99.90;;;;;;5117713;28;20027;-86
2023/07/29 00:42:46;;;;;;;2.50;1.65;;;21.90;99.90;;;;;;5122863;28;20382;-86
2023/07/29 00:45:12;;;;;;;1.60;1.50;;;21.90;99.90;;;;;;5119477;28;20116;-87
2023/07/29 00:47:39;;;;;;;1.80;1.55;;;21.90;99.90;;;;;;5100632;28;20166;-88
2023/07/29 00:50:09;;;;;;;2.70;2.00;;;21.90;99.90;;;;;;5100844;28;20024;-86
2023/07/29 00:52:35;;;;;;;2.35;1.65;;;21.90;99.90;;;;;;5120222;28;20057;-87
2023/07/29 00:55:01;;;;;;;1.98;1.67;;;21.90;99.90;;;;;;5119327;28;20028;-87
2023/07/29 00:57:28;;;;;;;1.20;1.05;;;21.90;99.90;;;;;;5120081;28;20028;-88
2023/07/29 00:59:54;;;;;;;2.53;1.58;;;21.90;99.90;;;;;;5119451;28;20058;-89
2023/07/29 01:02:20;;;;;;;1.67;1.30;;;21.90;99.90;;;;;;5121433;28;20059;-90
2023/07/29 01:04:45;;;;;;;1.48;1.33;;;21.90;99.90;;;;;;5117803;28;20028;-83
2023/07/29 01:07:34;;;;;;;1.38;1.25;;;21.90;99.90;;;;;;5117082;28;20026;-87
2023/07/29 01:10:02;;;;;;;2.17;1.48;;;21.90;99.90;;;;;;5116961;28;20023;-88
2023/07/29 01:12:42;;;;;;;1.50;1.35;;;21.90;99.90;;;;;;5098133;28;20080;-88
2023/07/29 01:15:21;;;;;;;2.13;1.92;;;21.90;99.90;;;;;;5116784;28;20039;-88
2023/07/29 01:17:51;;;;;;;1.40;1.30;;;21.90;99.90;;;;;;5116941;28;20023;-87
2023/07/29 01:20:20;;;;;;;1.88;1.67;;;21.90;99.90;;;;;;5116408;28;20019;-89
2023/07/29 01:22:47;;;;;;;1.70;1.60;;;21.90;99.90;;;;;;5115966;28;20114;-89
2023/07/29 01:25:13;;;;;;;1.73;1.60;;;21.90;99.90;;;;;;5116155;28;20032;-88
2023/07/29 01:27:39;;;;;;;1.73;1.45;;;21.90;99.90;;;;;;5115929;28;20034;-87
2023/07/29 01:30:06;;;;;;;2.13;1.60;;;21.90;99.90;;;;;;5116374;28;20135;-85
2023/07/29 01:32:50;;;;;;;2.53;1.98;;;21.90;99.90;;;;;;5081023;28;20035;-85
2023/07/29 01:35:42;;;;;;;1.80;1.52;;;21.80;99.90;;;;;;5116521;28;20028;-86
2023/07/29 01:38:20;;;;;;;1.60;1.50;;;21.90;99.90;;;;;;5097067;28;20039;-86
2023/07/29 01:40:48;;;;;;;2.40;1.98;;;21.90;99.90;;;;;;5097498;28;20085;-87
2023/07/29 01:43:14;;;;;;;2.50;2.05;;;21.90;99.90;;;;;;5097768;28;20088;-86
2023/07/29 01:45:40;;;;;;;2.25;2.05;;;21.90;99.90;;;;;;5097625;28;20027;-86
2023/07/29 01:48:07;;;;;;;2.85;1.70;;;21.80;99.90;;;;;;5115134;28;20100;-85
2023/07/29 01:50:33;;;;;;;1.90;1.80;;;21.80;99.90;;;;;;5097176;28;20031;-87
2023/07/29 01:52:59;;;;;;;1.90;1.60;;;21.80;99.90;;;;;;5115752;28;20031;-87
2023/07/29 01:55:25;;;;;;;3.20;2.45;;;21.80;99.90;;;;;;5115466;28;20027;-87
2023/07/29 01:57:51;;;;;;;4.07;2.00;;;21.70;99.90;;;;;;5098908;28;20215;-87
2023/07/29 02:00:18;;;;;;;4.40;1.75;;;21.70;99.90;;;;;;5116320;28;20031;-88
2023/07/29 02:02:43;;;;;;;2.03;1.45;;;21.70;99.90;;;;;;5079963;28;20108;-88
2023/07/29 02:05:09;;;;;;;2.88;1.88;;;21.70;99.90;;;;;;5115588;28;20035;-87
2023/07/29 02:07:35;;;;;;;1.75;1.35;;;21.70;99.90;;;;;;5114672;28;20418;-87
2023/07/29 02:10:00;;;;;;;3.00;2.70;;;21.80;99.90;;;;;;5097018;28;20428;-88
2023/07/29 02:12:26;;;;;;;1.98;1.80;;;21.80;99.90;;;;;;5114854;28;20035;-89
2023/07/29 02:14:52;;;;;;;3.55;2.70;;;21.70;99.90;;;;;;5079916;28;20063;-87
2023/07/29 02:17:17;;;;;;;2.60;2.40;;;21.70;99.90;;;;;;5096848;28;20516;-88
2023/07/29 02:19:43;;;;;;;1.83;1.50;;;21.70;99.90;;;;;;5115096;28;20032;-88
2023/07/29 02:22:13;;;;;;;1.65;1.42;;;21.70;99.90;;;;;;5096368;28;20490;-88
2023/07/29 02:24:38;;;;;;;3.65;3.22;;;21.70;99.90;;;;;;5114371;28;20027;-89
2023/07/29 02:27:04;;;;;;;3.15;2.38;;;21.70;99.90;;;;;;5096443;28;20492;-88
2023/07/29 02:29:30;;;;;;;2.15;1.75;;;21.60;99.90;;;;;;5096209;28;20031;-88
2023/07/29 02:31:56;;;;;;;3.53;3.03;;;21.70;99.90;;;;;;5114557;28;20032;-87
2023/07/29 02:34:21;;;;;;;4.90;4.20;;;21.70;99.90;;;;;;5096155;28;20366;-87
2023/07/29 02:36:47;;;;;;;5.85;4.80;;;21.60;99.90;;;;;;5114615;28;20036;-87
2023/07/29 02:39:13;;;;;;;7.43;5.72;;;21.60;99.90;;;;;;5096216;28;20028;-87
2023/07/29 02:41:38;;;;;;;10.10;7.25;;;21.60;99.90;;;;;;5114206;28;20031;-87
2023/07/29 02:44:05;;;;;;;6.95;6.25;;;21.50;99.90;;;;;;5114307;28;20027;-88
2023/07/29 02:46:30;;;;;;;4.60;4.20;;;21.40;99.90;;;;;;5114497;28;20034;-88
2023/07/29 02:48:56;;;;;;;2.75;2.50;;;21.40;99.90;;;;;;5114401;28;20024;-88
2023/07/29 02:51:22;;;;;;;6.93;5.72;;;21.30;99.90;;;;;;5114014;28;20414;-88
2023/07/29 02:53:47;;;;;;;4.07;3.67;;;21.30;99.90;;;;;;5113829;28;20541;-87
2023/07/29 02:56:13;;;;;;;6.32;4.30;;;21.30;99.90;;;;;;5096167;28;20463;-87
2023/07/29 02:58:39;;;;;;;4.90;4.40;;;21.30;99.90;;;;;;5113833;28;20392;-87
2023/07/29 03:01:06;;;;;;;6.57;5.43;;;21.30;99.90;;;;;;5113954;28;20482;-88
2023/07/29 03:03:32;;;;;;;3.58;3.17;;;21.20;99.90;;;;;;5114505;28;20058;-87
2023/07/29 03:06:04;;;;;;;4.22;3.83;;;21.20;99.90;;;;;;5096100;28;20058;-87
2023/07/29 03:08:29;;;;;;;4.87;4.00;;;21.10;99.90;;;;;;5096356;28;20081;-87
2023/07/29 03:10:56;;;;;;;5.78;4.85;;;21.10;99.90;;;;;;5117848;28;20434;-87
2023/07/29 03:13:21;;;;;;;3.60;2.80;;;21.10;99.90;;;;;;5099972;28;20459;-87
2023/07/29 03:15:47;;;;;;;4.43;3.70;;;21.10;99.90;;;;;;5100013;28;20028;-85
2023/07/29 03:18:13;;;;;;;6.47;5.05;;;21.20;99.90;;;;;;5118238;28;20023;-85
2023/07/29 03:20:38;;;;;;;8.00;6.03;;;21.20;99.90;;;;;;5118058;28;20039;-87
2023/07/29 03:23:04;;;;;;;7.43;4.72;;;21.10;99.90;;;;;;5117980;28;20471;-86
2023/07/29 03:25:30;;;;;;;7.75;5.50;;;21.10;99.90;;;;;;5118427;28;20051;-87
2023/07/29 03:27:55;;;;;;;10.07;5.63;;;21.00;99.90;;;;;;5100374;28;20107;-86
2023/07/29 03:30:22;;;;;;;5.88;4.80;;;20.90;99.90;;;;;;5117840;28;20023;-86
2023/07/29 03:32:48;;;;;;;9.65;5.47;;;20.90;99.90;;;;;;5118196;28;20046;-87
2023/07/29 03:35:14;;;;;;;5.43;3.80;;;20.80;99.90;;;;;;5118114;28;20081;-86
2023/07/29 03:37:40;;;;;;;6.25;3.97;;;20.80;99.90;;;;;;5100813;28;20028;-85
2023/07/29 03:40:07;;;;;;;5.10;3.67;;;20.80;99.90;;;;;;5099740;28;20032;-85
2023/07/29 03:42:33;;;;;;;3.60;2.92;;;20.80;99.90;;;;;;5117450;28;20035;-85
2023/07/29 03:44:58;;;;;;;5.20;3.45;;;20.80;99.90;;;;;;5099955;28;20035;-86
2023/07/29 03:47:24;;;;;;;5.85;3.75;;;20.70;99.90;;;;;;5117702;28;20057;-86
2023/07/29 03:49:50;;;;;;;6.40;3.70;;;20.70;99.90;;;;;;5118485;28;20361;-86
2023/07/29 03:52:15;;;;;;;4.03;2.38;;;20.70;99.90;;;;;;5117635;28;20027;-86
2023/07/29 03:54:41;;;;;;;5.18;3.85;;;20.70;99.90;;;;;;5118175;28;20031;-85
2023/07/29 03:57:07;;;;;;;5.35;3.88;;;20.70;99.90;;;;;;5099494;28;20027;-86
2023/07/29 03:59:33;;;;;;;7.18;3.15;;;20.70;99.90;;;;;;5117190;28;20032;-87
2023/07/29 04:01:58;;;;;;;5.97;3.17;;;20.70;99.90;;;;;;5117587;28;20042;-87
2023/07/29 04:04:24;;;;;;;5.78;3.72;;;20.70;99.90;;;;;;5099432;28;20051;-86
2023/07/29 04:06:50;;;;;;;3.83;2.70;;;20.70;99.90;;;;;;5098789;28;20035;-87
2023/07/29 04:09:15;;;;;;;2.72;2.10;;;20.70;99.90;;;;;;5117245;28;20024;-87
2023/07/29 04:11:41;;;;;;;2.10;1.90;;;20.70;99.90;;;;;;5098822;28;20042;-84
2023/07/29 04:14:06;;;;;;;4.07;2.65;;;20.70;99.90;;;;;;5098649;28;20450;-86
2023/07/29 04:16:32;;;;;;;2.13;1.92;;;20.70;99.90;;;;;;5117428;28;20510;-86
2023/07/29 04:18:58;;;;;;;2.90;1.95;;;20.70;99.90;;;;;;5117026;28;20103;-86
2023/07/29 04:21:23;;;;;;;2.38;1.83;;;20.70;99.90;;;;;;5099306;28;20061;-86
2023/07/29 04:23:49;;;;;;;2.65;1.60;;;20.70;99.90;;;;;;5116909;28;20034;-87
2023/07/29 04:26:14;;;;;;;4.88;2.47;;;20.70;99.90;;;;;;5116460;28;20528;-85
2023/07/29 04:28:40;;;;;;;3.20;2.25;;;20.70;99.90;;;;;;5116568;28;20027;-86
2023/07/29 04:31:06;;;;;;;3.78;2.03;;;20.60;99.90;;;;;;5098509;28;20035;-86
2023/07/29 04:33:32;;;;;;;2.33;1.95;;;20.60;99.90;;;;;;5116412;28;20039;-87
2023/07/29 04:35:57;;;;;;;2.75;1.50;;;20.60;99.90;;;;;;5116734;28;20032;-86
2023/07/29 04:38:32;;;;;;;2.10;1.90;;;20.60;99.90;;;;;;5116668;28;20440;-86
2023/07/29 04:41:00;;;;;;;1.98;1.52;;;20.60;99.90;;;;;;5116383;28;20150;-86
2023/07/29 04:43:28;;;;;;;1.90;1.52;;;20.60;99.90;;;;;;5117166;28;20463;-86
2023/07/29 04:45:53;;;;;;;2.85;1.52;;;20.70;99.90;;;;;;5117654;28;20032;-87
2023/07/29 04:48:19;;;;;;;1.75;1.40;;;20.70;99.90;;;;;;5099099;28;20042;-87
2023/07/29 04:50:45;;;;;;;2.70;2.33;;;20.70;99.90;;;;;;5116553;28;20127;-86
2023/07/29 04:53:11;;;;;;;3.92;1.80;;;20.70;99.90;;;;;;5098378;28;20055;-87
2023/07/29 04:55:36;;;;;;;4.18;1.80;;;20.70;99.90;;;;;;5081698;28;20031;-87
2023/07/29 04:58:02;;;;;;;3.40;1.70;;;20.60;99.90;;;;;;5098355;28;20031;-87
2023/07/29 05:00:27;;;;;;;6.85;2.33;;;20.60;99.90;;;;;;5083041;28;20487;-85
2023/07/29 05:02:53;;;;;;;2.60;1.80;;;20.50;99.90;;;;;;5117659;28;20028;-86
2023/07/29 05:05:19;;;;;;;3.67;1.83;;;20.50;99.90;;;;;;5116930;28;20027;-87
2023/07/29 05:07:44;;;;;;;5.10;2.08;;;20.40;99.90;;;;;;5116263;28;20032;-87
2023/07/29 05:10:11;;;;;;;2.95;1.92;;;20.40;99.90;;;;;;5115999;28;20032;-87
2023/07/29 05:12:36;;;;;;;3.20;1.48;;;20.30;99.90;;;;;;5115820;28;20146;-86
2023/07/29 05:15:02;;;;;;;2.53;1.35;;;20.20;99.90;;;;;;5098224;28;20152;-86
2023/07/29 05:17:28;;;;;;;1.67;1.20;;;20.10;99.90;;;;;;5115952;28;20039;-86
2023/07/29 05:19:54;;;;;;;2.40;0.98;;;20.10;99.90;;;;;;5115513;28;20023;-86
2023/07/29 05:22:19;;;;;;;3.30;1.60;;;20.10;99.90;;;;;;5097790;28;20403;-88
2023/07/29 05:24:45;;;;;;;2.78;1.30;;;20.10;99.90;;;;;;5098234;28;20383;-87
2023/07/29 05:27:10;;;;;;;3.05;1.25;;;20.10;99.90;;;;;;5098808;28;20077;-86
2023/07/29 05:29:36;;;;;;;1.85;1.60;;;20.10;99.90;;;;;;5098321;28;20023;-87
2023/07/29 05:32:02;;;;;;;2.42;1.73;;;20.20;99.90;;;;;;5115843;28;20403;-88
2023/07/29 05:34:27;;;;;;;2.55;1.70;;;20.10;99.90;;;;;;5115428;28;20035;-86
2023/07/29 05:36:53;;;;;;;2.08;1.38;;;20.10;99.90;;;;;;5080895;28;20031;-86
2023/07/29 05:39:19;;;;;;;2.08;1.48;;;20.00;99.90;;;;;;5097011;28;20036;-87
2023/07/29 05:41:45;;;;;;;5.47;1.70;;;19.90;99.90;;;;;;5115751;28;20031;-86
2023/07/29 05:44:11;;;;;;;2.53;1.83;;;19.90;99.90;;;;;;5097891;28;20049;-87
2023/07/29 05:46:36;;;;;;;2.95;1.48;;;19.80;99.90;;;;;;5115184;28;20032;-87
2023/07/29 05:49:02;;;;;;;2.08;1.27;;;19.80;99.90;;;;;;5115211;28;20023;-87
2023/07/29 05:51:28;;;;;;;2.40;1.50;;;19.80;99.90;;;;;;5097251;28;20032;-87
2023/07/29 05:53:53;;;;;;;3.10;1.88;;;19.80;99.90;;;;;;5096987;28;20383;-87
2023/07/29 05:56:19;;;;;;;4.72;2.40;;;19.80;99.90;;;;;;5097060;28;20034;-86
2023/07/29 05:58:45;;;;;;;2.58;2.03;;;19.80;99.90;;;;;;5097133;28;20110;-88
2023/07/29 06:01:10;;;;;;;3.95;2.47;;;19.80;99.90;;;;;;5115527;28;20032;-88
2023/07/29 06:03:36;;;;;;;4.35;2.50;;;19.80;99.90;;;;;;5114919;28;20043;-87
2023/07/29 06:06:02;;;;;;;2.85;2.25;;;19.70;99.90;;;;;;5097132;28;20031;-87
2023/07/29 06:08:29;;;;;;;4.57;1.70;;;19.70;99.90;;;;;;5115071;28;20028;-87
2023/07/29 06:10:54;;;;;;;4.30;2.88;;;19.70;99.90;;;;;;5115202;28;20046;-86
2023/07/29 06:13:20;;;;;;;3.78;2.58;;;19.80;99.90;;;;;;5115210;28;20460;-86
2023/07/29 06:15:46;;;;;;;4.25;2.28;;;19.70;99.90;;;;;;5096763;28;20118;-86
2023/07/29 06:18:11;;;;;;;5.50;3.42;;;19.70;99.90;;;;;;5097040;28;20050;-87
2023/07/29 06:20:37;;;;;;;4.13;2.83;;;19.70;99.90;;;;;;5115836;28;20419;-82
2023/07/29 06:23:03;;;;;;;3.05;2.60;;;19.70;99.90;;;;;;5114808;28;20115;-87
2023/07/29 06:25:29;;;;;;;4.07;2.97;;;19.80;99.90;;;;;;5115407;28;20392;-87
2023/07/29 06:27:54;;;;;;;3.08;1.88;;;19.90;99.90;;;;;;5097398;28;20169;-87
2023/07/29 06:30:20;;;;;;;6.05;3.40;;;19.90;99.90;;;;;;5114853;28;20035;-88
2023/07/29 06:32:45;;;;;;;4.65;3.40;;;20.00;99.90;;;;;;5080135;28;20032;-87
2023/07/29 06:35:11;;;;;;;4.15;3.33;;;20.00;99.90;;;;;;5115620;28;20024;-88
2023/07/29 06:37:37;;;;;;;5.03;3.50;;;20.10;99.90;;;;;;5115592;28;20054;-87
2023/07/29 06:40:03;;;;;;;3.78;2.75;;;20.20;99.90;;;;;;5116170;28;20447;-88
2023/07/29 06:42:28;;;;;;;3.70;3.08;;;20.30;99.90;;;;;;5097646;28;20040;-87
2023/07/29 06:44:54;;;;;;;8.20;3.60;;;20.30;99.90;;;;;;5118709;28;20140;-84
2023/07/29 06:47:20;;;;;;;6.55;3.63;;;20.30;99.90;;;;;;5120043;28;20106;-87
2023/07/29 06:49:46;;;;;;;4.60;3.28;;;20.20;99.90;;;;;;5119200;28;20024;-85
2023/07/29 06:52:12;;;;;;;3.80;2.95;;;20.10;99.90;;;;;;5119609;28;20077;-85
2023/07/29 06:54:38;;;;;;;4.00;3.33;;;20.20;99.90;;;;;;5119285;28;20426;-86
2023/07/29 06:57:04;;;;;;;5.00;3.40;;;20.20;99.90;;;;;;5119636;28;20056;-88
2023/07/29 06:59:29;;;;;;;6.15;3.10;;;20.20;99.90;;;;;;5119599;28;20035;-88
2023/07/29 07:01:55;;;;;;;5.85;4.20;;;20.30;99.90;;;;;;5119139;28;20451;-86
2023/07/29 07:04:20;;;;;;;5.25;3.70;;;20.30;99.90;;;;;;5119714;28;20059;-86
2023/07/29 07:06:46;;;;;;;5.80;3.78;;;20.20;99.90;;;;;;5101082;28;20034;-85
2023/07/29 07:09:12;;;;;;;4.18;3.38;;;20.20;99.90;;;;;;5120439;28;20024;-86
2023/07/29 07:11:37;;;;;;;4.85;3.33;;;20.20;99.90;;;;;;5120175;28;20110;-87
2023/07/29 07:14:03;;;;;;;5.65;3.63;;;20.20;99.90;;;;;;5119680;28;20114;-86
2023/07/29 07:16:30;;;;;;;5.68;3.50;;;20.30;99.90;;;;;;5101486;28;20406;-88
2023/07/29 07:18:56;;;;;;;5.65;3.70;;;20.20;99.90;;;;;;5101842;28;20031;-87
2023/07/29 07:21:22;;;;;;;5.43;3.53;;;20.20;99.90;;;;;;5118607;28;20027;-86
2023/07/29 07:23:50;;;;;;;5.30;3.58;;;20.20;99.90;;;;;;5085144;28;20039;-85
2023/07/29 07:26:15;;;;;;;5.45;3.60;;;20.20;99.90;;;;;;5120361;28;20031;-87
2023/07/29 07:28:41;;;;;;;6.63;4.30;;;20.10;99.90;;;;;;5120461;28;20028;-87
2023/07/29 07:31:06;;;;;;;3.95;3.35;;;20.10;99.90;;;;;;5123695;28;20038;-88
2023/07/29 07:33:32;;;;;;;7.55;4.10;;;20.10;99.90;;;;;;5121849;28;20049;-87
2023/07/29 07:35:58;;;;;;;6.05;4.10;;;20.10;99.90;;;;;;5087156;28;20084;-87
2023/07/29 07:38:23;;;;;;;4.78;3.65;;;20.10;99.90;;;;;;5107615;28;20417;-86
2023/07/29 07:40:54;;;;;;;6.03;3.60;;;20.10;99.90;;;;;;5124089;28;20039;-88
2023/07/29 07:43:20;;;;;;;5.15;4.53;;;20.30;99.90;;;;;;5123717;28;20031;-88
2023/07/29 07:45:46;;;;;;;6.55;4.00;;;20.40;99.90;;;;;;5121745;28;20482;-88
2023/07/29 07:48:13;;;;;;;4.80;4.15;;;20.40;99.90;;;;;;5102882;28;20451;-90
2023/07/29 07:50:39;;;;;;;4.93;4.30;;;20.40;99.90;;;;;;5086836;28;20023;-86
2023/07/29 07:53:04;;;;;;;6.65;4.40;;;20.30;99.90;;;;;;5122804;28;20035;-86
2023/07/29 07:55:30;;;;;;;3.35;2.88;;;20.40;99.90;;;;;;5085504;28;20169;-88
2023/07/29 07:57:56;;;;;;;4.03;2.90;;;20.30;99.90;;;;;;5120861;28;20043;-87
2023/07/29 08:00:21;;;;;;;4.70;2.95;;;20.30;99.90;;;;;;5119767;28;20057;-87
2023/07/29 08:02:47;;;;;;;4.47;3.28;;;20.30;99.90;;;;;;5101058;28;20027;-87
2023/07/29 08:05:13;;;;;;;5.47;3.60;;;20.40;99.90;;;;;;5121687;28;20053;-86
2023/07/29 08:07:38;;;;;;;5.32;3.53;;;20.40;99.90;;;;;;5102509;28;20031;-87
2023/07/29 08:10:04;;;;;;;4.20;3.80;;;20.40;99.90;;;;;;5120602;28;20031;-83
2023/07/29 08:12:30;;;;;;;7.40;4.53;;;20.40;99.90;;;;;;5101471;28;20036;-84
2023/07/29 08:14:56;;;;;;;5.55;3.83;;;20.40;99.90;;;;;;5120862;28;20066;-85
2023/07/29 08:17:21;;;;;;;5.65;3.83;;;20.30;99.90;;;;;;5120588;28;20027;-87
2023/07/29 08:19:47;;;;;;;5.45;3.00;;;20.40;99.90;;;;;;5121505;28;20120;-85
2023/07/29 08:22:13;;;;;;;3.97;2.63;;;20.30;99.90;;;;;;5119453;28;20059;-85
2023/07/29 08:24:38;;;;;;;5.45;2.80;;;20.30;99.90;;;;;;5119094;28;20114;-86
2023/07/29 08:27:04;;;;;;;3.00;2.70;;;20.30;99.90;;;;;;5119456;28;20027;-87
2023/07/29 08:29:30;;;;;;;5.13;3.38;;;20.30;99.90;;;;;;5101928;28;20484;-86
2023/07/29 08:31:55;;;;;;;3.17;2.22;;;20.40;99.90;;;;;;5119979;28;20039;-87
2023/07/29 08:34:21;;;;;;;5.68;2.83;;;20.30;99.90;;;;;;5119539;28;20360;-87
2023/07/29 08:36:46;;;;;;;4.00;2.97;;;20.30;99.90;;;;;;5119322;28;20020;-85
2023/07/29 08:39:12;;;;;;;6.70;2.10;;;20.40;99.90;;;;;;5119296;28;20051;-85
2023/07/29 08:41:51;;;;;;;4.70;2.22;;;20.30;99.90;;;;;;5119953;28;20055;-86
2023/07/29 08:44:26;;;;;;;2.25;1.88;;;20.40;99.90;;;;;;5101652;28;20024;-85
2023/07/29 08:46:53;;;;;;;3.83;2.10;;;20.40;99.90;;;;;;5119627;28;20028;-86
2023/07/29 08:49:19;;;;;;;3.05;2.17;;;20.40;99.90;;;;;;5101032;28;20458;-86
2023/07/29 08:51:49;;;;;;;3.88;2.40;;;20.50;99.90;;;;;;5082943;28;20364;-85
2023/07/29 08:54:15;;;;;;;4.15;2.22;;;20.50;99.90;;;;;;5119081;28;20028;-87
2023/07/29 08:56:42;;;;;;;2.60;2.10;;;20.60;99.90;;;;;;5119061;28;20095;-85
2023/07/29 08:59:10;;;;;;;2.85;1.85;;;20.70;99.90;;;;;;5100525;28;20421;-85
2023/07/29 09:01:37;;;;;;;2.63;1.30;;;20.70;99.90;;;;;;5117943;28;20036;-85
2023/07/29 09:04:02;;;;;;;1.80;1.05;;;20.80;99.90;;;;;;5099440;28;20083;-87
2023/07/29 09:06:29;;;;;;;2.28;1.40;;;20.80;99.90;;;;;;5117311;28;20038;-86
2023/07/29 09:08:56;;;;;;;3.45;1.52;;;20.80;99.90;;;;;;5117732;28;20026;-85
2023/07/29 09:11:22;;;;;;;2.55;1.65;;;20.80;99.90;;;;;;5083170;28;20042;-86
2023/07/29 09:13:48;;;;;;;4.25;1.67;;;20.80;99.90;;;;;;5118989;28;20027;-88
2023/07/29 09:16:14;;;;;;;1.90;1.27;;;20.80;99.90;;;;;;5118363;28;20110;-86
2023/07/29 09:18:40;;;;;;;2.00;1.00;;;20.80;99.90;;;;;;5118784;28;20077;-87
2023/07/29 09:21:06;;;;;;;3.63;1.08;;;20.80;99.90;;;;;;5118820;28;20039;-86
2023/07/29 09:23:42;;;;;;;3.10;1.40;;;20.80;99.90;;;;;;5118116;28;20035;-86
2023/07/29 09:26:07;;;;;;;2.63;1.30;;;20.70;99.90;;;;;;5099601;28;20028;-87
2023/07/29 09:28:39;;;;;;;3.28;1.50;;;20.70;99.90;;;;;;5117704;28;20036;-86
2023/07/29 09:31:05;;;;;;;2.65;1.23;;;20.60;99.90;;;;;;5117574;28;20028;-84
2023/07/29 09:33:37;;;;;;;4.40;1.02;;;20.60;99.90;;;;;;5117400;28;20038;-87
2023/07/29 09:36:12;;;;;;;3.33;1.10;;;20.70;99.90;;;;;;5101217;28;20088;-86
2023/07/29 09:38:37;;;;;;;2.00;0.70;;;20.70;99.90;;;;;;5118772;28;20074;-87
2023/07/29 09:41:03;;;;;;;3.03;0.60;;;20.80;99.90;;;;;;5118435;28;20036;-86
2023/07/29 09:43:31;;;;;;;3.22;0.95;;;20.80;99.90;;;;;;5098604;28;20043;-86
2023/07/29 09:46:00;;;;;;;1.73;0.68;;;20.90;99.90;;;;;;5100304;28;20031;-86
2023/07/29 09:48:26;;;;;;;2.10;0.85;;;21.10;99.90;;;;;;5120333;28;20031;-87
2023/07/29 09:50:51;;;;;;;2.72;0.82;;;21.30;99.90;;;;;;5119845;28;20080;-86
2023/07/29 09:53:17;;;;;;;1.88;0.63;;;21.40;99.90;;;;;;5122547;28;20090;-85
2023/07/29 09:55:53;;;;;;;3.30;0.70;;;21.60;99.90;;;;;;5122148;28;20051;-82
2023/07/29 09:58:28;;;;;;;3.70;0.55;;;21.80;99.90;;;;;;5103403;28;20023;-86
2023/07/29 10:00:54;;;;;;;2.13;0.90;;;21.90;99.90;;;;;;5099298;28;20042;-86
2023/07/29 10:03:21;;;;;;;3.08;1.13;;;22.10;99.90;;;;;;5116344;28;20047;-87
2023/07/29 10:05:47;;;;;;;3.75;1.05;;;22.30;99.90;;;;;;5116754;28;20115;-87
2023/07/29 10:08:14;;;;;;;1.73;0.85;;;22.20;99.70;;;;;;5115315;28;20088;-87
2023/07/29 10:10:42;;;;;;;1.63;0.90;;;22.20;99.90;;;;;;5097009;28;20473;-87
2023/07/29 10:13:09;;;;;;;4.68;1.08;;;22.10;99.80;;;;;;5115229;28;20032;-88
2023/07/29 10:15:36;;;;;;;1.40;0.88;;;22.20;99.90;;;;;;5115659;28;20066;-88
2023/07/29 10:18:03;;;;;;;1.42;0.65;;;22.10;99.70;;;;;;5114804;28;20023;-89
2023/07/29 10:20:31;;;;;;;2.50;0.73;;;22.20;99.80;;;;;;5096975;28;20345;-87
2023/07/29 10:23:00;;;;;;;2.97;1.33;;;22.30;99.90;;;;;;5096994;28;20035;-87
2023/07/29 10:25:38;;;;;;;2.95;0.77;;;22.60;99.90;;;;;;5096767;28;20114;-88
2023/07/29 10:28:08;;;;;;;1.38;0.52;;;22.70;99.50;;;;;;5096390;28;20108;-88
2023/07/29 10:30:34;;;;;;;1.90;0.57;;;22.90;99.40;;;;;;5096784;28;20380;-88
2023/07/29 10:33:04;;;;;;;1.25;0.40;;;23.00;99.00;;;;;;5097354;28;20043;-88
2023/07/29 10:35:32;;;;;;;2.13;0.47;;;23.20;98.60;;;;;;5114751;28;20030;-87
2023/07/29 10:38:00;;;;;;;3.08;0.47;;;23.30;98.00;;;;;;5114925;28;20032;-89
2023/07/29 10:40:25;;;;;;;1.83;0.70;;;23.30;97.60;;;;;;5096911;28;20114;-88
2023/07/29 10:43:10;;;;;;;2.25;0.70;;;23.20;97.60;;;;;;5116237;28;20083;-88
2023/07/29 10:45:41;;;;;;;2.00;0.73;;;23.10;97.60;;;;;;5116011;28;20016;-86
2023/07/29 10:48:11;;;;;;;3.88;1.17;;;23.00;97.60;;;;;;5115720;28;20084;-88
2023/07/29 10:50:37;;;;;;;1.52;1.00;;;23.00;97.90;;;;;;5115009;28;20074;-83
2023/07/29 10:53:03;;;;;;;1.38;1.00;;;22.90;97.80;;;;;;5115129;28;20475;-88
2023/07/29 10:55:30;;;;;;;3.50;1.10;;;22.90;98.00;;;;;;5115832;28;20107;-88
2023/07/29 10:58:19;;;;;;;2.13;1.20;;;22.80;98.20;;;;;;5115802;28;20024;-88
2023/07/29 11:00:45;;;;;;;2.58;1.27;;;22.80;98.30;;;;;;5115914;28;20028;-89
2023/07/29 11:03:14;;;;;;;1.65;1.08;;;22.70;98.10;;;;;;5114986;28;20035;-87
2023/07/29 11:05:51;;;;;;;1.75;1.00;;;22.70;98.20;;;;;;5115728;28;20032;-86
2023/07/29 11:08:30;;;;;;;1.70;0.85;;;22.60;98.40;;;;;;5097363;28;20168;-88
2023/07/29 11:11:08;;;;;;;4.10;1.00;;;22.60;98.50;;;;;;5096967;28;20032;-86
2023/07/29 11:13:36;;;;;;;5.28;0.82;;;22.60;98.60;;;;;;5098123;28;20028;-88
2023/07/29 11:16:03;;;;;;;1.35;0.93;;;22.70;98.60;;;;;;5115115;28;20024;-87
2023/07/29 11:18:34;;;;;;;1.48;0.90;;;22.60;98.60;;;;;;5115408;28;20023;-85
2023/07/29 11:21:00;;;;;;;1.92;1.08;;;22.60;98.40;;;;;;5114521;28;20031;-87
2023/07/29 11:23:31;;;;;;;4.40;1.30;;;22.50;98.50;;;;;;5097128;28;20050;-87
2023/07/29 11:25:58;;;;;;;2.00;1.20;;;22.50;98.60;;;;;;5115027;28;20016;-88
2023/07/29 11:28:24;;;;;;;1.77;0.80;;;22.40;98.30;;;;;;5097763;28;20532;-88
2023/07/29 11:30:51;;;;;;;2.03;1.00;;;22.30;98.50;;;;;;5097355;28;20059;-88
2023/07/29 11:33:25;;;;;;;1.27;0.85;;;22.30;98.50;;;;;;5118713;28;20047;-88
2023/07/29 11:35:51;;;;;;;3.33;0.90;;;22.20;98.70;;;;;;5119279;28;20056;-87
2023/07/29 11:38:18;;;;;;;4.00;1.10;;;22.20;98.90;;;;;;5118509;28;20027;-86
2023/07/29 11:40:54;;;;;;;2.33;0.93;;;22.20;98.80;;;;;;5118726;28;20466;-86
2023/07/29 11:43:20;;;;;;;3.38;0.90;;;22.10;98.90;;;;;;5118171;28;20027;-86
2023/07/29 11:45:45;;;;;;;2.45;1.20;;;22.10;99.10;;;;;;5118298;28;20016;-87
2023/07/29 11:48:11;;;;;;;1.88;0.77;;;22.10;99.20;;;;;;5100585;28;20096;-85
2023/07/29 11:50:37;;;;;;;4.35;0.70;;;22.00;99.30;;;;;;5099783;28;20384;-89
2023/07/29 11:53:02;;;;;;;1.90;0.90;;;22.00;99.30;;;;;;5099624;28;20028;-88
2023/07/29 11:55:28;;;;;;;2.67;0.90;;;22.00;99.40;;;;;;5118959;28;20059;-85
2023/07/29 11:57:54;;;;;;;3.13;0.75;;;21.90;99.80;;;;;;5100122;28;20440;-87
2023/07/29 12:00:21;;;;;;;1.70;0.80;;;21.80;99.90;;;;;;5117882;28;20031;-89
2023/07/29 12:02:48;;;;;;;1.88;1.08;;;21.60;99.90;;;;;;5119131;28;20069;-87
2023/07/29 12:05:15;;;;;;;2.28;0.73;;;21.50;99.90;;;;;;5100024;28;20043;-84
2023/07/29 12:07:42;;;;;;;1.90;0.88;;;21.40;99.90;;;;;;5100011;28;20046;-86
2023/07/29 12:10:09;;;;;;;1.45;0.80;;;21.20;99.90;;;;;;5118459;28;20051;-87
2023/07/29 12:12:45;;;;;;;3.38;1.25;;;21.10;99.90;;;;;;5118138;28;20024;-87
2023/07/29 12:15:10;;;;;;;0.90;0.50;;;21.00;99.90;;;;;;5118088;28;20456;-87
2023/07/29 12:17:42;;;;;;;2.50;0.70;;;20.90;99.90;;;;;;5118606;28;20043;-89
2023/07/29 12:20:10;;;;;;;3.60;1.10;;;20.80;99.90;;;;;;5118393;28;20479;-89
2023/07/29 12:22:35;;;;;;;2.45;0.95;;;20.80;99.90;;;;;;5120004;28;20069;-89
2023/07/29 12:25:02;;;;;;;3.28;0.73;;;20.80;99.90;;;;;;5118905;28;20056;-89
2023/07/29 12:27:31;;;;;;;1.75;1.08;;;20.80;99.90;;;;;;5118998;28;20055;-86
2023/07/29 12:30:03;;;;;;;2.75;0.80;;;20.80;99.90;;;;;;5120355;28;20031;-90
2023/07/29 12:32:29;;;;;;;3.07;1.10;;;20.90;99.90;;;;;;5118357;28;20023;-91
2023/07/29 12:34:55;;;;;;;2.00;0.85;;;21.00;99.90;;;;;;5099802;28;20061;-89
2023/07/29 12:37:30;;;;;;;1.38;0.90;;;21.00;99.90;;;;;;5118688;28;20471;-86
2023/07/29 12:39:56;;;;;;;2.47;0.80;;;21.00;99.90;;;;;;5102319;28;20027;-89
2023/07/29 12:42:21;;;;;;;2.70;0.50;;;21.00;99.90;;;;;;5117906;28;20479;-91
2023/07/29 12:44:47;;;;;;;2.65;0.70;;;21.10;99.90;;;;;;5102265;28;20469;-90
2023/07/29 12:47:13;;;;;;;1.48;0.52;;;21.10;99.90;;;;;;5117462;28;20038;-90